sensor_id;sensor_type;location;lat;lon;timestamp;temperature;humidity
13203;DHT22;6666;51.626;7.530;2023-09-12T00:00:54;20.60;99.90
13203;DHT22;6666;51.626;7.530;2023-09-12T00:03:23;20.60;99.90
13203;DHT22;6666;51.626;7.530;2023-09-12T00:05:52;20.60;99.90
13203;DHT22;6666;51.626;7.530;2023-09-12T00:08:20;20.50;99.90
13203;DHT22;6666;51.626;7.530;2023-09-12T00:10:59;20.50;99.90
13203;DHT22;6666;51.626;7.530;2023-09-12T00:13:27;20.40;99.90
13203;DHT22;6666;51.626;7.530;2023-09-12T00:15:55;20.40;99.90
13203;DHT22;6666;51.626;7.530;2023-09-12T00:18:25;20.40;99.90
13203;DHT22;6666;51.626;7.530;2023-09-12T00:20:53;20.30;99.90
13203;DHT22;6666;51.626;7.530;2023-09-12T00:23:22;20.20;99.90
13203;DHT22;6666;51.626;7.530;2023-09-12T00:25:50;20.20;99.90
13203;DHT22;6666;51.626;7.530;2023-09-12T00:28:19;20.10;99.90
13203;DHT22;6666;51.626;7.530;2023-09-12T00:30:48;20.10;99.90
13203;DHT22;6666;51.626;7.530;2023-09-12T00:33:16;20.10;99.90
13203;DHT22;6666;51.626;7.530;2023-09-12T00:35:46;20.10;99.90
13203;DHT22;6666;51.626;7.530;2023-09-12T00:38:14;20.10;99.90
13203;DHT22;6666;51.626;7.530;2023-09-12T00:40:42;20.10;99.90
13203;DHT22;6666;51.626;7.530;2023-09-12T00:43:10;20.10;99.90
13203;DHT22;6666;51.626;7.530;2023-09-12T00:45:38;20.00;99.90
13203;DHT22;6666;51.626;7.530;2023-09-12T00:48:08;20.00;99.90
13203;DHT22;6666;51.626;7.530;2023-09-12T00:50:37;20.00;99.90
13203;DHT22;6666;51.626;7.530;2023-09-12T00:53:08;20.00;99.90
13203;DHT22;6666;51.626;7.530;2023-09-12T00:55:37;20.00;99.90
13203;DHT22;6666;51.626;7.530;2023-09-12T00:58:07;20.00;99.90
13203;DHT22;6666;51.626;7.530;2023-09-12T01:00:36;19.90;99.90
13203;DHT22;6666;51.626;7.530;2023-09-12T01:03:04;19.90;99.90
13203;DHT22;6666;51.626;7.530;2023-09-12T01:05:33;19.90;99.90
13203;DHT22;6666;51.626;7.530;2023-09-12T01:08:02;19.90;99.90
13203;DHT22;6666;51.626;7.530;2023-09-12T01:10:32;20.00;99.90
13203;DHT22;6666;51.626;7.530;2023-09-12T01:13:00;20.00;99.90
13203;DHT22;6666;51.626;7.530;2023-09-12T01:15:28;20.00;99.90
13203;DHT22;6666;51.626;7.530;2023-09-12T01:17:57;20.10;99.90
13203;DHT22;6666;51.626;7.530;2023-09-12T01:20:28;20.10;99.90
13203;DHT22;6666;51.626;7.530;2023-09-12T01:23:18;20.10;99.90
13203;DHT22;6666;51.626;7.530;2023-09-12T01:26:17;20.10;99.90
13203;DHT22;6666;51.626;7.530;2023-09-12T01:28:48;20.10;99.90
13203;DHT22;6666;51.626;7.530;2023-09-12T01:31:19;20.00;99.90
13203;DHT22;6666;51.626;7.530;2023-09-12T01:33:48;20.00;99.90
13203;DHT22;6666;51.626;7.530;2023-09-12T01:36:16;19.90;99.90
13203;DHT22;6666;51.626;7.530;2023-09-12T01:38:44;19.90;99.90
13203;DHT22;6666;51.626;7.530;2023-09-12T01:41:12;19.90;99.90
13203;DHT22;6666;51.626;7.530;2023-09-12T01:43:41;19.90;99.90
13203;DHT22;6666;51.626;7.530;2023-09-12T01:46:13;19.90;99.90
13203;DHT22;6666;51.626;7.530;2023-09-12T01:48:43;19.80;99.90
13203;DHT22;6666;51.626;7.530;2023-09-12T01:51:12;19.80;99.90
13203;DHT22;6666;51.626;7.530;2023-09-12T01:53:42;19.90;99.90
13203;DHT22;6666;51.626;7.530;2023-09-12T01:56:12;19.90;99.90
13203;DHT22;6666;51.626;7.530;2023-09-12T01:58:41;19.90;99.90
13203;DHT22;6666;51.626;7.530;2023-09-12T02:01:10;20.00;99.90
13203;DHT22;6666;51.626;7.530;2023-09-12T02:03:40;20.10;99.90
13203;DHT22;6666;51.626;7.530;2023-09-12T02:06:08;20.10;99.90
13203;DHT22;6666;51.626;7.530;2023-09-12T02:08:36;20.10;99.90
13203;DHT22;6666;51.626;7.530;2023-09-12T02:11:04;20.10;99.90
13203;DHT22;6666;51.626;7.530;2023-09-12T02:13:32;20.10;99.90
13203;DHT22;6666;51.626;7.530;2023-09-12T02:16:01;20.10;99.90
13203;DHT22;6666;51.626;7.530;2023-09-12T02:18:30;19.90;99.90
13203;DHT22;6666;51.626;7.530;2023-09-12T02:21:00;19.90;99.90
13203;DHT22;6666;51.626;7.530;2023-09-12T02:23:29;19.90;99.90
13203;DHT22;6666;51.626;7.530;2023-09-12T02:25:57;19.80;99.90
13203;DHT22;6666;51.626;7.530;2023-09-12T02:28:25;19.80;99.90
13203;DHT22;6666;51.626;7.530;2023-09-12T02:30:53;19.70;99.90
13203;DHT22;6666;51.626;7.530;2023-09-12T02:33:22;19.70;99.90
13203;DHT22;6666;51.626;7.530;2023-09-12T02:35:50;19.70;99.90
13203;DHT22;6666;51.626;7.530;2023-09-12T02:38:20;19.70;99.90
13203;DHT22;6666;51.626;7.530;2023-09-12T02:40:48;19.70;99.90
13203;DHT22;6666;51.626;7.530;2023-09-12T02:43:16;19.70;99.90
13203;DHT22;6666;51.626;7.530;2023-09-12T02:45:44;19.60;99.90
13203;DHT22;6666;51.626;7.530;2023-09-12T02:48:12;19.60;99.90
13203;DHT22;6666;51.626;7.530;2023-09-12T02:50:41;19.50;99.90
13203;DHT22;6666;51.626;7.530;2023-09-12T02:53:09;19.60;99.90
13203;DHT22;6666;51.626;7.530;2023-09-12T02:55:41;19.50;99.90
13203;DHT22;6666;51.626;7.530;2023-09-12T02:58:09;19.50;99.90
13203;DHT22;6666;51.626;7.530;2023-09-12T03:00:38;19.40;99.90
13203;DHT22;6666;51.626;7.530;2023-09-12T03:03:07;19.40;99.90
13203;DHT22;6666;51.626;7.530;2023-09-12T03:05:37;19.40;99.90
13203;DHT22;6666;51.626;7.530;2023-09-12T03:08:05;19.40;99.90
13203;DHT22;6666;51.626;7.530;2023-09-12T03:10:34;19.40;99.90
13203;DHT22;6666;51.626;7.530;2023-09-12T03:13:03;19.30;99.90
13203;DHT22;6666;51.626;7.530;2023-09-12T03:15:36;19.40;99.90
13203;DHT22;6666;51.626;7.530;2023-09-12T03:18:09;19.40;99.90
13203;DHT22;6666;51.626;7.530;2023-09-12T03:20:38;19.30;99.90
13203;DHT22;6666;51.626;7.530;2023-09-12T03:23:07;19.40;99.90
13203;DHT22;6666;51.626;7.530;2023-09-12T03:25:36;19.40;99.90
13203;DHT22;6666;51.626;7.530;2023-09-12T03:28:07;19.40;99.90
13203;DHT22;6666;51.626;7.530;2023-09-12T03:30:36;19.40;99.90
13203;DHT22;6666;51.626;7.530;2023-09-12T03:33:06;19.40;99.90
13203;DHT22;6666;51.626;7.530;2023-09-12T03:35:35;19.40;99.90
13203;DHT22;6666;51.626;7.530;2023-09-12T03:38:03;19.40;99.90
13203;DHT22;6666;51.626;7.530;2023-09-12T03:40:31;19.40;99.90
13203;DHT22;6666;51.626;7.530;2023-09-12T03:43:00;19.40;99.90
13203;DHT22;6666;51.626;7.530;2023-09-12T03:45:29;19.50;99.90
13203;DHT22;6666;51.626;7.530;2023-09-12T03:47:58;19.50;99.90
13203;DHT22;6666;51.626;7.530;2023-09-12T03:50:26;19.40;99.90
13203;DHT22;6666;51.626;7.530;2023-09-12T03:52:54;19.40;99.90
13203;DHT22;6666;51.626;7.530;2023-09-12T03:55:22;19.30;99.90
13203;DHT22;6666;51.626;7.530;2023-09-12T03:57:50;19.10;99.90
13203;DHT22;6666;51.626;7.530;2023-09-12T04:00:19;19.00;99.90
13203;DHT22;6666;51.626;7.530;2023-09-12T04:02:50;19.00;99.90
13203;DHT22;6666;51.626;7.530;2023-09-12T04:05:18;19.10;99.90
13203;DHT22;6666;51.626;7.530;2023-09-12T04:07:47;19.10;99.90
13203;DHT22;6666;51.626;7.530;2023-09-12T04:10:15;18.90;99.90
13203;DHT22;6666;51.626;7.530;2023-09-12T04:12:45;18.90;99.90
13203;DHT22;6666;51.626;7.530;2023-09-12T04:15:13;18.90;99.90
13203;DHT22;6666;51.626;7.530;2023-09-12T04:17:41;19.00;99.90
13203;DHT22;6666;51.626;7.530;2023-09-12T04:20:11;18.80;99.90
13203;DHT22;6666;51.626;7.530;2023-09-12T04:22:42;18.80;99.90
13203;DHT22;6666;51.626;7.530;2023-09-12T04:25:11;18.90;99.90
13203;DHT22;6666;51.626;7.530;2023-09-12T04:27:40;18.90;99.90
13203;DHT22;6666;51.626;7.530;2023-09-12T04:30:09;18.90;99.90
13203;DHT22;6666;51.626;7.530;2023-09-12T04:32:38;18.90;99.90
13203;DHT22;6666;51.626;7.530;2023-09-12T04:35:07;18.90;99.90
13203;DHT22;6666;51.626;7.530;2023-09-12T04:37:36;18.90;99.90
13203;DHT22;6666;51.626;7.530;2023-09-12T04:40:06;19.00;99.90
13203;DHT22;6666;51.626;7.530;2023-09-12T04:42:35;19.00;99.90
13203;DHT22;6666;51.626;7.530;2023-09-12T04:45:04;18.90;99.90
13203;DHT22;6666;51.626;7.530;2023-09-12T04:47:33;18.90;99.90
13203;DHT22;6666;51.626;7.530;2023-09-12T04:50:01;19.00;99.90
13203;DHT22;6666;51.626;7.530;2023-09-12T04:52:29;18.90;99.90
13203;DHT22;6666;51.626;7.530;2023-09-12T04:55:01;18.90;99.90
13203;DHT22;6666;51.626;7.530;2023-09-12T04:57:31;18.90;99.90
13203;DHT22;6666;51.626;7.530;2023-09-12T05:00:00;19.00;99.90
13203;DHT22;6666;51.626;7.530;2023-09-12T05:02:28;18.90;99.90
13203;DHT22;6666;51.626;7.530;2023-09-12T05:04:56;18.90;99.90
13203;DHT22;6666;51.626;7.530;2023-09-12T05:07:25;18.90;99.90
13203;DHT22;6666;51.626;7.530;2023-09-12T05:09:53;18.90;99.90
13203;DHT22;6666;51.626;7.530;2023-09-12T05:12:23;18.90;99.90
13203;DHT22;6666;51.626;7.530;2023-09-12T05:14:51;18.90;99.90
13203;DHT22;6666;51.626;7.530;2023-09-12T05:17:20;18.80;99.90
13203;DHT22;6666;51.626;7.530;2023-09-12T05:19:48;18.80;99.90
13203;DHT22;6666;51.626;7.530;2023-09-12T05:22:16;18.80;99.90
13203;DHT22;6666;51.626;7.530;2023-09-12T05:24:44;18.80;99.90
13203;DHT22;6666;51.626;7.530;2023-09-12T05:27:12;18.80;99.90
13203;DHT22;6666;51.626;7.530;2023-09-12T05:29:42;18.80;99.90
13203;DHT22;6666;51.626;7.530;2023-09-12T05:32:10;18.80;99.90
13203;DHT22;6666;51.626;7.530;2023-09-12T05:34:39;18.90;99.90
13203;DHT22;6666;51.626;7.530;2023-09-12T05:37:07;18.90;99.90
13203;DHT22;6666;51.626;7.530;2023-09-12T05:39:35;18.90;99.90
13203;DHT22;6666;51.626;7.530;2023-09-12T05:42:04;18.80;99.90
13203;DHT22;6666;51.626;7.530;2023-09-12T05:44:32;18.80;99.90
13203;DHT22;6666;51.626;7.530;2023-09-12T05:47:02;18.80;99.90
13203;DHT22;6666;51.626;7.530;2023-09-12T05:49:31;18.90;99.90
13203;DHT22;6666;51.626;7.530;2023-09-12T05:52:00;18.90;99.90
13203;DHT22;6666;51.626;7.530;2023-09-12T05:54:30;18.90;99.90
13203;DHT22;6666;51.626;7.530;2023-09-12T05:56:58;18.90;99.90
13203;DHT22;6666;51.626;7.530;2023-09-12T05:59:26;18.90;99.90
13203;DHT22;6666;51.626;7.530;2023-09-12T06:01:54;18.90;99.90
13203;DHT22;6666;51.626;7.530;2023-09-12T06:04:23;18.90;99.90
13203;DHT22;6666;51.626;7.530;2023-09-12T06:06:52;18.90;99.90
13203;DHT22;6666;51.626;7.530;2023-09-12T06:09:20;18.80;99.90
13203;DHT22;6666;51.626;7.530;2023-09-12T06:11:48;18.80;99.90
13203;DHT22;6666;51.626;7.530;2023-09-12T06:14:16;18.70;99.90
13203;DHT22;6666;51.626;7.530;2023-09-12T06:16:44;18.70;99.90
13203;DHT22;6666;51.626;7.530;2023-09-12T06:19:12;18.70;99.90
13203;DHT22;6666;51.626;7.530;2023-09-12T06:21:42;18.70;99.90
13203;DHT22;6666;51.626;7.530;2023-09-12T06:24:12;18.70;99.90
13203;DHT22;6666;51.626;7.530;2023-09-12T06:26:41;18.80;99.90
13203;DHT22;6666;51.626;7.530;2023-09-12T06:29:09;18.80;99.90
13203;DHT22;6666;51.626;7.530;2023-09-12T06:31:37;18.90;99.90
13203;DHT22;6666;51.626;7.530;2023-09-12T06:34:06;18.90;99.90
13203;DHT22;6666;51.626;7.530;2023-09-12T06:36:34;18.90;99.90
13203;DHT22;6666;51.626;7.530;2023-09-12T06:39:04;18.90;99.90
13203;DHT22;6666;51.626;7.530;2023-09-12T06:41:32;18.90;99.90
13203;DHT22;6666;51.626;7.530;2023-09-12T06:44:01;18.90;99.90
13203;DHT22;6666;51.626;7.530;2023-09-12T06:46:31;18.90;99.90
13203;DHT22;6666;51.626;7.530;2023-09-12T06:49:02;18.90;99.90
13203;DHT22;6666;51.626;7.530;2023-09-12T06:51:30;19.00;99.90
13203;DHT22;6666;51.626;7.530;2023-09-12T06:54:05;19.00;99.90
13203;DHT22;6666;51.626;7.530;2023-09-12T06:56:33;19.00;99.90
13203;DHT22;6666;51.626;7.530;2023-09-12T06:59:05;18.90;99.90
13203;DHT22;6666;51.626;7.530;2023-09-12T07:01:33;19.00;99.90
13203;DHT22;6666;51.626;7.530;2023-09-12T07:04:01;18.90;99.90
13203;DHT22;6666;51.626;7.530;2023-09-12T07:06:30;19.00;99.90
13203;DHT22;6666;51.626;7.530;2023-09-12T07:08:59;19.00;99.90
13203;DHT22;6666;51.626;7.530;2023-09-12T07:11:29;19.00;99.90
13203;DHT22;6666;51.626;7.530;2023-09-12T07:13:57;19.00;99.90
13203;DHT22;6666;51.626;7.530;2023-09-12T07:16:26;18.90;99.90
13203;DHT22;6666;51.626;7.530;2023-09-12T07:18:54;18.90;99.90
13203;DHT22;6666;51.626;7.530;2023-09-12T07:21:22;18.90;99.90
13203;DHT22;6666;51.626;7.530;2023-09-12T07:23:50;19.00;99.90
13203;DHT22;6666;51.626;7.530;2023-09-12T07:26:18;19.00;99.90
13203;DHT22;6666;51.626;7.530;2023-09-12T07:28:47;19.00;99.90
13203;DHT22;6666;51.626;7.530;2023-09-12T07:31:16;19.10;99.90
13203;DHT22;6666;51.626;7.530;2023-09-12T07:33:45;19.10;99.90
13203;DHT22;6666;51.626;7.530;2023-09-12T07:36:13;19.10;99.90
13203;DHT22;6666;51.626;7.530;2023-09-12T07:38:41;19.10;99.90
13203;DHT22;6666;51.626;7.530;2023-09-12T07:41:12;19.00;99.90
13203;DHT22;6666;51.626;7.530;2023-09-12T07:43:40;18.90;99.90
13203;DHT22;6666;51.626;7.530;2023-09-12T07:46:10;19.00;99.90
13203;DHT22;6666;51.626;7.530;2023-09-12T07:48:39;19.00;99.90
13203;DHT22;6666;51.626;7.530;2023-09-12T07:51:16;19.00;99.90
13203;DHT22;6666;51.626;7.530;2023-09-12T07:53:45;19.00;99.90
13203;DHT22;6666;51.626;7.530;2023-09-12T07:56:13;19.00;99.90
13203;DHT22;6666;51.626;7.530;2023-09-12T07:58:41;18.90;99.90
13203;DHT22;6666;51.626;7.530;2023-09-12T08:01:11;18.90;99.90
13203;DHT22;6666;51.626;7.530;2023-09-12T08:03:41;18.90;99.90
13203;DHT22;6666;51.626;7.530;2023-09-12T08:06:10;18.80;99.90
13203;DHT22;6666;51.626;7.530;2023-09-12T08:08:39;18.90;99.90
13203;DHT22;6666;51.626;7.530;2023-09-12T08:11:10;18.90;99.90
13203;DHT22;6666;51.626;7.530;2023-09-12T08:13:38;18.80;99.90
13203;DHT22;6666;51.626;7.530;2023-09-12T08:16:07;18.80;99.90
13203;DHT22;6666;51.626;7.530;2023-09-12T08:18:36;18.60;99.90
13203;DHT22;6666;51.626;7.530;2023-09-12T08:21:04;18.40;99.90
13203;DHT22;6666;51.626;7.530;2023-09-12T08:23:32;18.40;99.90
13203;DHT22;6666;51.626;7.530;2023-09-12T08:26:01;18.40;99.90
13203;DHT22;6666;51.626;7.530;2023-09-12T08:28:29;18.50;99.90
13203;DHT22;6666;51.626;7.530;2023-09-12T08:30:57;18.50;99.90
13203;DHT22;6666;51.626;7.530;2023-09-12T08:33:25;18.50;99.90
13203;DHT22;6666;51.626;7.530;2023-09-12T08:35:55;18.50;99.90
13203;DHT22;6666;51.626;7.530;2023-09-12T08:38:23;18.60;99.90
13203;DHT22;6666;51.626;7.530;2023-09-12T08:40:51;18.70;99.90
13203;DHT22;6666;51.626;7.530;2023-09-12T08:43:20;18.70;99.90
13203;DHT22;6666;51.626;7.530;2023-09-12T08:45:48;18.80;99.90
13203;DHT22;6666;51.626;7.530;2023-09-12T08:48:18;18.80;99.90
13203;DHT22;6666;51.626;7.530;2023-09-12T08:50:51;19.00;99.90
13203;DHT22;6666;51.626;7.530;2023-09-12T08:53:22;19.10;99.90
13203;DHT22;6666;51.626;7.530;2023-09-12T08:55:51;19.20;99.90
13203;DHT22;6666;51.626;7.530;2023-09-12T08:58:20;19.20;99.90
13203;DHT22;6666;51.626;7.530;2023-09-12T09:00:50;19.30;99.90
13203;DHT22;6666;51.626;7.530;2023-09-12T09:03:19;19.40;99.90
13203;DHT22;6666;51.626;7.530;2023-09-12T09:05:48;19.30;99.90
13203;DHT22;6666;51.626;7.530;2023-09-12T09:08:17;19.20;99.90
13203;DHT22;6666;51.626;7.530;2023-09-12T09:10:56;19.20;99.90
13203;DHT22;6666;51.626;7.530;2023-09-12T09:13:25;19.30;99.90
13203;DHT22;6666;51.626;7.530;2023-09-12T09:16:11;19.20;99.90
13203;DHT22;6666;51.626;7.530;2023-09-12T09:18:56;19.20;99.90
13203;DHT22;6666;51.626;7.530;2023-09-12T09:21:25;19.30;99.90
13203;DHT22;6666;51.626;7.530;2023-09-12T09:23:54;19.30;99.90
13203;DHT22;6666;51.626;7.530;2023-09-12T09:26:24;19.40;99.90
13203;DHT22;6666;51.626;7.530;2023-09-12T09:29:06;19.40;99.90
13203;DHT22;6666;51.626;7.530;2023-09-12T09:31:36;19.40;99.90
13203;DHT22;6666;51.626;7.530;2023-09-12T09:34:11;19.50;99.90
13203;DHT22;6666;51.626;7.530;2023-09-12T09:36:43;19.70;99.90
13203;DHT22;6666;51.626;7.530;2023-09-12T09:39:12;19.80;99.90
13203;DHT22;6666;51.626;7.530;2023-09-12T09:41:42;19.80;99.90
13203;DHT22;6666;51.626;7.530;2023-09-12T09:44:10;19.80;99.90
13203;DHT22;6666;51.626;7.530;2023-09-12T09:46:38;19.80;99.90
13203;DHT22;6666;51.626;7.530;2023-09-12T09:49:10;20.00;99.90
13203;DHT22;6666;51.626;7.530;2023-09-12T09:51:41;20.00;99.90
13203;DHT22;6666;51.626;7.530;2023-09-12T09:54:10;20.10;99.90
13203;DHT22;6666;51.626;7.530;2023-09-12T09:56:47;20.10;99.90
13203;DHT22;6666;51.626;7.530;2023-09-12T09:59:15;20.10;99.90
13203;DHT22;6666;51.626;7.530;2023-09-12T10:01:44;20.10;99.90
13203;DHT22;6666;51.626;7.530;2023-09-12T10:04:13;20.20;99.90
13203;DHT22;6666;51.626;7.530;2023-09-12T10:06:44;20.40;99.90
13203;DHT22;6666;51.626;7.530;2023-09-12T10:09:13;20.50;99.90
13203;DHT22;6666;51.626;7.530;2023-09-12T10:11:43;20.50;99.90
13203;DHT22;6666;51.626;7.530;2023-09-12T10:14:15;20.50;99.90
13203;DHT22;6666;51.626;7.530;2023-09-12T10:16:46;20.50;99.90
13203;DHT22;6666;51.626;7.530;2023-09-12T10:19:17;20.60;99.90
13203;DHT22;6666;51.626;7.530;2023-09-12T10:21:49;20.80;99.90
13203;DHT22;6666;51.626;7.530;2023-09-12T10:24:19;20.80;99.90
13203;DHT22;6666;51.626;7.530;2023-09-12T10:26:50;21.00;99.90
13203;DHT22;6666;51.626;7.530;2023-09-12T10:29:21;21.30;99.90
13203;DHT22;6666;51.626;7.530;2023-09-12T10:31:50;21.30;99.90
13203;DHT22;6666;51.626;7.530;2023-09-12T10:34:18;21.50;99.90
13203;DHT22;6666;51.626;7.530;2023-09-12T10:36:48;21.70;99.90
13203;DHT22;6666;51.626;7.530;2023-09-12T10:39:19;21.60;99.90
13203;DHT22;6666;51.626;7.530;2023-09-12T10:41:48;21.50;99.90
13203;DHT22;6666;51.626;7.530;2023-09-12T10:44:17;21.60;99.90
13203;DHT22;6666;51.626;7.530;2023-09-12T10:46:47;21.60;99.90
13203;DHT22;6666;51.626;7.530;2023-09-12T10:49:18;21.60;99.90
13203;DHT22;6666;51.626;7.530;2023-09-12T10:51:46;21.60;99.90
13203;DHT22;6666;51.626;7.530;2023-09-12T10:54:16;21.70;99.90
13203;DHT22;6666;51.626;7.530;2023-09-12T10:57:02;21.70;99.90
13203;DHT22;6666;51.626;7.530;2023-09-12T10:59:31;21.70;99.90
13203;DHT22;6666;51.626;7.530;2023-09-12T11:02:28;21.90;99.90
13203;DHT22;6666;51.626;7.530;2023-09-12T11:04:57;21.90;99.90
13203;DHT22;6666;51.626;7.530;2023-09-12T11:07:33;21.90;99.90
13203;DHT22;6666;51.626;7.530;2023-09-12T11:10:21;22.00;99.90
13203;DHT22;6666;51.626;7.530;2023-09-12T11:12:50;21.90;99.90
13203;DHT22;6666;51.626;7.530;2023-09-12T11:15:20;21.80;99.90
13203;DHT22;6666;51.626;7.530;2023-09-12T11:18:00;22.00;99.90
13203;DHT22;6666;51.626;7.530;2023-09-12T11:20:50;21.90;99.90
13203;DHT22;6666;51.626;7.530;2023-09-12T11:23:19;22.00;99.90
13203;DHT22;6666;51.626;7.530;2023-09-12T11:25:47;21.90;99.90
13203;DHT22;6666;51.626;7.530;2023-09-12T11:28:16;22.00;99.90
13203;DHT22;6666;51.626;7.530;2023-09-12T11:30:56;22.10;99.90
13203;DHT22;6666;51.626;7.530;2023-09-12T11:33:26;22.20;99.90
13203;DHT22;6666;51.626;7.530;2023-09-12T11:35:56;22.30;99.90
13203;DHT22;6666;51.626;7.530;2023-09-12T11:38:27;22.30;99.90
13203;DHT22;6666;51.626;7.530;2023-09-12T11:40:57;22.20;99.90
13203;DHT22;6666;51.626;7.530;2023-09-12T11:43:27;22.40;99.90
13203;DHT22;6666;51.626;7.530;2023-09-12T11:45:56;22.20;99.90
13203;DHT22;6666;51.626;7.530;2023-09-12T11:48:28;22.30;99.90
13203;DHT22;6666;51.626;7.530;2023-09-12T11:50:57;22.40;99.90
13203;DHT22;6666;51.626;7.530;2023-09-12T11:53:27;22.40;99.90
13203;DHT22;6666;51.626;7.530;2023-09-12T11:55:58;22.40;99.90
13203;DHT22;6666;51.626;7.530;2023-09-12T11:58:27;22.60;99.90
13203;DHT22;6666;51.626;7.530;2023-09-12T12:00:56;22.60;99.90
13203;DHT22;6666;51.626;7.530;2023-09-12T12:03:27;22.50;99.90
13203;DHT22;6666;51.626;7.530;2023-09-12T12:05:57;22.50;99.90
13203;DHT22;6666;51.626;7.530;2023-09-12T12:08:25;22.40;99.90
13203;DHT22;6666;51.626;7.530;2023-09-12T12:10:59;22.40;99.90
13203;DHT22;6666;51.626;7.530;2023-09-12T12:13:27;22.40;99.90
13203;DHT22;6666;51.626;7.530;2023-09-12T12:15:56;22.50;99.90
13203;DHT22;6666;51.626;7.530;2023-09-12T12:18:24;22.70;99.90
13203;DHT22;6666;51.626;7.530;2023-09-12T12:20:55;22.80;99.90
13203;DHT22;6666;51.626;7.530;2023-09-12T12:23:23;22.90;99.90
13203;DHT22;6666;51.626;7.530;2023-09-12T12:25:51;22.80;99.90
13203;DHT22;6666;51.626;7.530;2023-09-12T12:28:20;22.70;99.90
13203;DHT22;6666;51.626;7.530;2023-09-12T12:30:52;22.70;99.90
13203;DHT22;6666;51.626;7.530;2023-09-12T12:33:21;22.80;99.90
13203;DHT22;6666;51.626;7.530;2023-09-12T12:36:10;22.80;99.90
13203;DHT22;6666;51.626;7.530;2023-09-12T12:38:40;22.80;99.90
13203;DHT22;6666;51.626;7.530;2023-09-12T12:41:22;22.90;99.90
13203;DHT22;6666;51.626;7.530;2023-09-12T12:43:53;23.00;99.90
13203;DHT22;6666;51.626;7.530;2023-09-12T12:46:21;23.10;99.90
13203;DHT22;6666;51.626;7.530;2023-09-12T12:48:49;23.10;99.90
13203;DHT22;6666;51.626;7.530;2023-09-12T12:51:20;23.00;99.90
13203;DHT22;6666;51.626;7.530;2023-09-12T12:53:50;22.90;99.90
13203;DHT22;6666;51.626;7.530;2023-09-12T12:56:22;23.00;99.90
13203;DHT22;6666;51.626;7.530;2023-09-12T12:58:54;23.10;99.90
13203;DHT22;6666;51.626;7.530;2023-09-12T13:01:24;23.10;99.90
13203;DHT22;6666;51.626;7.530;2023-09-12T13:03:52;23.20;99.90
13203;DHT22;6666;51.626;7.530;2023-09-12T13:06:22;23.10;99.90
13203;DHT22;6666;51.626;7.530;2023-09-12T13:08:52;23.10;99.90
13203;DHT22;6666;51.626;7.530;2023-09-12T13:11:20;23.10;99.90
13203;DHT22;6666;51.626;7.530;2023-09-12T13:13:49;23.10;99.90
13203;DHT22;6666;51.626;7.530;2023-09-12T13:16:17;23.20;99.90
13203;DHT22;6666;51.626;7.530;2023-09-12T13:18:45;23.20;99.90
13203;DHT22;6666;51.626;7.530;2023-09-12T13:21:14;23.20;99.90
13203;DHT22;6666;51.626;7.530;2023-09-12T13:23:43;23.20;99.90
13203;DHT22;6666;51.626;7.530;2023-09-12T13:26:12;23.10;99.90
13203;DHT22;6666;51.626;7.530;2023-09-12T13:28:40;23.20;99.90
13203;DHT22;6666;51.626;7.530;2023-09-12T13:31:08;23.20;99.90
13203;DHT22;6666;51.626;7.530;2023-09-12T13:33:36;23.40;99.90
13203;DHT22;6666;51.626;7.530;2023-09-12T13:36:05;23.50;99.90
13203;DHT22;6666;51.626;7.530;2023-09-12T13:38:34;23.40;99.90
13203;DHT22;6666;51.626;7.530;2023-09-12T13:41:07;23.40;99.90
13203;DHT22;6666;51.626;7.530;2023-09-12T13:43:35;23.30;99.90
13203;DHT22;6666;51.626;7.530;2023-09-12T13:46:05;23.20;99.90
13203;DHT22;6666;51.626;7.530;2023-09-12T13:48:36;23.20;99.90
13203;DHT22;6666;51.626;7.530;2023-09-12T13:51:04;23.40;99.90
13203;DHT22;6666;51.626;7.530;2023-09-12T13:53:32;23.50;99.90
13203;DHT22;6666;51.626;7.530;2023-09-12T13:56:01;23.50;99.90
13203;DHT22;6666;51.626;7.530;2023-09-12T13:58:31;23.60;99.90
13203;DHT22;6666;51.626;7.530;2023-09-12T14:01:08;23.60;99.90
13203;DHT22;6666;51.626;7.530;2023-09-12T14:03:39;23.50;99.90
13203;DHT22;6666;51.626;7.530;2023-09-12T14:06:07;23.50;99.90
13203;DHT22;6666;51.626;7.530;2023-09-12T14:08:36;23.50;99.90
13203;DHT22;6666;51.626;7.530;2023-09-12T14:11:04;23.70;99.90
13203;DHT22;6666;51.626;7.530;2023-09-12T14:13:40;23.70;99.90
13203;DHT22;6666;51.626;7.530;2023-09-12T14:16:08;23.80;99.90
13203;DHT22;6666;51.626;7.530;2023-09-12T14:18:36;23.90;99.90
13203;DHT22;6666;51.626;7.530;2023-09-12T14:21:05;23.90;99.90
13203;DHT22;6666;51.626;7.530;2023-09-12T14:23:33;23.80;99.90
13203;DHT22;6666;51.626;7.530;2023-09-12T14:26:03;23.80;99.90
13203;DHT22;6666;51.626;7.530;2023-09-12T14:28:31;23.50;99.90
13203;DHT22;6666;51.626;7.530;2023-09-12T14:31:03;23.30;99.90
13203;DHT22;6666;51.626;7.530;2023-09-12T14:33:33;23.20;99.90
13203;DHT22;6666;51.626;7.530;2023-09-12T14:36:02;23.20;99.90
13203;DHT22;6666;51.626;7.530;2023-09-12T14:38:31;23.10;99.90
13203;DHT22;6666;51.626;7.530;2023-09-12T14:40:59;23.20;99.90
13203;DHT22;6666;51.626;7.530;2023-09-12T14:43:27;23.20;99.90
13203;DHT22;6666;51.626;7.530;2023-09-12T14:45:56;23.40;99.90
13203;DHT22;6666;51.626;7.530;2023-09-12T14:48:25;23.50;99.90
13203;DHT22;6666;51.626;7.530;2023-09-12T14:50:53;23.50;99.90
13203;DHT22;6666;51.626;7.530;2023-09-12T14:53:22;23.50;99.90
13203;DHT22;6666;51.626;7.530;2023-09-12T14:55:50;23.50;99.90
13203;DHT22;6666;51.626;7.530;2023-09-12T14:58:18;23.50;99.90
13203;DHT22;6666;51.626;7.530;2023-09-12T15:00:47;23.50;99.90
13203;DHT22;6666;51.626;7.530;2023-09-12T15:03:15;23.40;99.90
13203;DHT22;6666;51.626;7.530;2023-09-12T15:05:44;23.50;99.90
13203;DHT22;6666;51.626;7.530;2023-09-12T15:08:12;23.50;99.90
13203;DHT22;6666;51.626;7.530;2023-09-12T15:10:40;23.70;99.90
13203;DHT22;6666;51.626;7.530;2023-09-12T15:13:08;23.60;99.90
13203;DHT22;6666;51.626;7.530;2023-09-12T15:15:37;23.70;99.90
13203;DHT22;6666;51.626;7.530;2023-09-12T15:18:06;23.70;99.90
13203;DHT22;6666;51.626;7.530;2023-09-12T15:20:34;23.80;99.90
13203;DHT22;6666;51.626;7.530;2023-09-12T15:23:04;24.00;99.90
13203;DHT22;6666;51.626;7.530;2023-09-12T15:25:32;23.90;99.90
13203;DHT22;6666;51.626;7.530;2023-09-12T15:28:03;23.90;99.90
13203;DHT22;6666;51.626;7.530;2023-09-12T15:30:32;23.80;99.90
13203;DHT22;6666;51.626;7.530;2023-09-12T15:33:00;23.80;99.90
13203;DHT22;6666;51.626;7.530;2023-09-12T15:35:28;23.80;99.90
13203;DHT22;6666;51.626;7.530;2023-09-12T15:37:56;23.70;99.90
13203;DHT22;6666;51.626;7.530;2023-09-12T15:40:26;23.70;99.90
13203;DHT22;6666;51.626;7.530;2023-09-12T15:42:54;23.60;99.90
13203;DHT22;6666;51.626;7.530;2023-09-12T15:45:23;23.50;99.90
13203;DHT22;6666;51.626;7.530;2023-09-12T15:47:51;23.50;99.90
13203;DHT22;6666;51.626;7.530;2023-09-12T15:50:19;23.50;99.90
13203;DHT22;6666;51.626;7.530;2023-09-12T15:52:47;23.50;99.90
13203;DHT22;6666;51.626;7.530;2023-09-12T15:55:16;23.50;99.90
13203;DHT22;6666;51.626;7.530;2023-09-12T15:57:46;23.50;99.90
13203;DHT22;6666;51.626;7.530;2023-09-12T16:00:14;23.50;99.90